Nearby METAR Reports

 

YMEN - Melbourne/Essend, Australia
Distance from station: WNW 96km
Updated: 20/09/2018 10:00
Partly cloudy
Partly cloudy
 Wind from W
Wind: W 13 km/h
Temperature: 13°C
Dew Point: 5°C
Humidity: 59%
Barometer: 1021 hPa
Clouds: Partly cloudy
Visibility: 10 km
Cloud details: Partly cloudy 975 m
2018/09/20 00:00 YMEN 200000Z AUTO 26007KT 9999 // SCT032 13/05 Q1021
YMML - Melbourne Intl A, Australia
Distance from station: WNW 106km
Updated: 20/09/2018 10:30
Partly cloudy
Partly cloudy
 Wind from SW
Wind: SW 13 km/h
Temperature: 13°C
Dew Point: 3°C
Humidity: 51%
Barometer: 1021 hPa
Clouds: Partly cloudy
Visibility: 10 km
Cloud details: Partly cloudy 1158 m
2018/09/20 00:30 YMML 200030Z 23007KT 9999 SCT038 13/03 Q1021 NOSIG
YMAV - Avalon Airport, Australia
Distance from station: W 121km
Updated: 20/09/2018 10:30
Partly cloudy
Partly cloudy
 Wind from W
Wind: W 20 km/h
Temperature: 15°C
Dew Point: 7°C
Humidity: 59%
Barometer: 1021 hPa
Clouds: Partly cloudy
Visibility: 10 km
Cloud details: Partly cloudy 1006 m
2018/09/20 00:30 YMAV 200030Z AUTO 28011KT 9999 // SCT033 15/07 Q1021 RF00.0/000.0
 
YWGT - Wangaratta Arp, Australia
Distance from station: N 196km
Updated: 20/09/2018 10:00
Clear
Clear
 Wind from WSW
Wind: WSW 6 km/h
Temperature: 12°C
Dew Point: 4°C
Humidity: 58%
Barometer: 1021 hPa
Clouds: Clear
Visibility: 10 km
2018/09/20 00:00 YWGT 200000Z AUTO 25003KT 9999 // NCD 12/04 Q1021
YMAY - Albury Airport, Australia
Distance from station: NNE 250km
Updated: 20/09/2018 10:00
Clear
Clear
 Wind from E
Wind: E 6 km/h
Temperature: 12°C
Dew Point: 3°C
Humidity: 54%
Barometer: 1021 hPa
Clouds: Clear
Visibility: 10 km
2018/09/20 00:00 YMAY 200000Z AUTO 09003KT 9999 // NCD 12/03 Q1021
YCOM - Cooma Snowy Mtns, Australia
Distance from station: NE 343km
Updated: 20/09/2018 10:00
Clear
Clear
 Wind from SSW
Wind: SSW 13 km/h
Temperature: 7°C
Wind Chill: 5°C
Dew Point: -6°C
Humidity: 39%
Barometer: 1019 hPa
Clouds: Clear
Visibility: 10 km
2018/09/20 00:00 YCOM 200000Z AUTO 20007KT 9999 // NCD 07/M06 Q1019
 
YSWG - Wagga Wagga(Cv/M, Australia
Distance from station: NNE 364km
Updated: 20/09/2018 10:00
Few Clouds
Few Clouds
 Wind from NNW
Wind: NNW 6 km/h
Temperature: 13°C
Dew Point: 2°C
Humidity: 47%
Barometer: 1021 hPa
Clouds: Few Clouds
Visibility: 10 km
Cloud details: Few Clouds 1372 m
2018/09/20 00:00 YSWG 200000Z 33003KT 9999 FEW045 13/02 Q1021
YMER - Merimbula Arpt, Australia
Distance from station: ENE 382km
Updated: 20/09/2018 10:00
Clear
Clear
 Wind from S
Wind: S 13 km/h
Temperature: 16°C
Dew Point: -1°C
Humidity: 31%
Barometer: 1019 hPa
Clouds: Clear
2018/09/20 00:00 YMER 200000Z AUTO 19007KT 150V220 //// // NCD 16/M01 Q1019
YNAR - Narrandera, Australia
Distance from station: N 388km
Updated: 20/09/2018 10:00

 Wind from SW
Wind: SW 7 km/h
Temperature: 14°C
Dew Point: 0°C
Humidity: 39%
Barometer: 1022 hPa
2018/09/20 00:00 YNAR 200000Z AUTO 23004KT //// // ////// 14/M00 Q1022
 
YMLT - Launceston Airpo, Australia
Distance from station: SSE 392km
Updated: 20/09/2018 10:30
Clear
Clear
 Wind from N
Wind: N 19 km/h
Temperature: 11°C
Dew Point: 5°C
Humidity: 67%
Barometer: 1015 hPa
Clouds: Clear
Visibility: 10 km
2018/09/20 00:30 YMLT 200030Z AUTO 35010KT 9999 // NCD 11/05 Q1015 RF00.0/000.0
YGTH - Griffith Arpt, Australia
Distance from station: N 434km
Updated: 20/09/2018 10:00
Clear
Clear
 Wind from WSW
Wind: WSW 15 km/h
Temperature: 15°C
Dew Point: 3°C
Humidity: 45%
Barometer: 1022 hPa
Clouds: Clear
Visibility: 10 km
2018/09/20 00:00 YGTH 200000Z AUTO 25008KT 230V300 9999 // NCD 15/03 Q1022
YSCB - Canberra (civ/Mi, Australia
Distance from station: NE 434km
Updated: 20/09/2018 10:30
Few Clouds
Few Clouds
 Wind from NNE
Wind: NNE 7 km/h
Temperature: 11°C
Dew Point: -3°C
Humidity: 38%
Barometer: 1020 hPa
Clouds: Few Clouds
Visibility: 10 km
Cloud details: Few Clouds 1524 m
2018/09/20 00:30 YSCB 200030Z 02004KT 9999 FEW050 11/M03 Q1020 NOSIG
 
YMTG - Mount Gambier, Australia
Distance from station: W 447km
Updated: 20/09/2018 10:00
Partly cloudy
Partly cloudy
 Wind from NNW
Wind: NNW 17 km/h
Temperature: 12°C
Dew Point: 9°C
Humidity: 82%
Barometer: 1021 hPa
Clouds: Partly cloudy
Visibility: 10 km
Cloud details: Partly cloudy 396 m
Partly cloudy 579 m
Partly cloudy 792 m
2018/09/20 00:00 YMTG 200000Z AUTO 33009KT 9999 // SCT013 SCT019 SCT026 12/09 Q1021
YMHB - Hobart/Tasmania, Australia
Distance from station: SSE 538km
Updated: 20/09/2018 10:30
Few Clouds
Few Clouds
 Wind from NW
Wind: NW 28 km/h
Temperature: 14°C
Dew Point: 2°C
Humidity: 44%
Barometer: 1013 hPa
Clouds: Few Clouds
Visibility: 10 km
Cloud details: Few Clouds 1372 m
2018/09/20 00:30 YMHB 200030Z 31015KT 9999 FEW045 14/02 Q1013
YSNW - Nowra (aus-Navy), Australia
Distance from station: NE 547km
Updated: 20/09/2018 10:00
Partly cloudy
Partly cloudy
 Wind from SSE
Wind: SSE 13 km/h
Temperature: 15°C
Dew Point: 2°C
Humidity: 42%
Barometer: 1019 hPa
Clouds: Partly cloudy
Visibility: 10 km
Cloud details: Partly cloudy 1067 m
2018/09/20 00:00 YSNW 200000Z 15007KT 9999 SCT035 15/02 Q1019 NOSIG
 
YMIA - Mildura Arpt, Australia
Distance from station: NW 551km
Updated: 20/09/2018 10:00
Clear
Clear
 Wind from W
Wind: W 6 km/h
Temperature: 13°C
Dew Point: 4°C
Humidity: 55%
Barometer: 1024 hPa
Clouds: Clear
Visibility: 10 km
2018/09/20 00:00 YMIA 200000Z AUTO 26003KT 9999 // NCD 13/04 Q1024
YSSY - Sydney Intl Airp, Australia
Distance from station: NE 667km
Updated: 20/09/2018 10:30
Nearby showers, Mostly cloudy
Nearby showers, Mostly cloudy
 Wind from NNW
Wind: NNW 9 km/h
Temperature: 13°C
Dew Point: 9°C
Humidity: 77%
Barometer: 1019 hPa
Summary: Nearby Showers
Clouds: Mostly cloudy
Visibility: 10 km
Cloud details: Few Clouds 457 m
Partly cloudy 853 m
Mostly cloudy 1707 m
2018/09/20 00:30 YSSY 200030Z 33005KT 9999 VCSH FEW015 SCT028 BKN056 13/09 Q1019 FM0100 19010KT 9999 -SHRA SCT025 FM0200 16015KT 9999 FEW030
YSRI - Richmond (aus-Af, Australia
Distance from station: NE 671km
Updated: 20/09/2018 10:30
Overcast
Overcast
 Wind from ENE
Wind: ENE 9 km/h
Temperature: 13°C
Dew Point: 9°C
Humidity: 77%
Barometer: 1020 hPa
Clouds: Overcast
Visibility: 10 km
Cloud details: Partly cloudy 1676 m
Overcast 1951 m
2018/09/20 00:30 YSRI 200030Z AUTO 07005KT 9999 // SCT055 OVC064 13/09 Q1020
 
YSDU - Dubbo, Australia
Distance from station: NNE 704km
Updated: 20/09/2018 10:30
Clear
Clear
 Wind from SSW
Wind: SSW 28 km/h
Temperature: 16°C
Dew Point: -3°C
Humidity: 27%
Barometer: 1020 hPa
Clouds: Clear
Visibility: 10 km
2018/09/20 00:30 YSDU 200030Z AUTO 21015KT 9999 // NCD 16/M03 Q1020 RF00.0/000.0
YMDG - Mudgee Arpt, Australia
Distance from station: NNE 708km
Updated: 20/09/2018 10:00
Clear
Clear
 Wind from SE
Wind: SE 9 km/h
Temperature: 13°C
Dew Point: 0°C
Humidity: 41%
Barometer: 1019 hPa
Clouds: Clear
Visibility: 10 km
2018/09/20 00:00 YMDG 200000Z AUTO 14005KT 110V200 9999 // NCD 13/M00 Q1019